sensor_id;sensor_type;location;lat;lon;timestamp;P1;durP1;ratioP1;P2;durP2;ratioP2
14736;SDS011;7459;53.590;10.062;2022-11-24T00:00:51;9.00;;;3.67;;
14736;SDS011;7459;53.590;10.062;2022-11-24T00:03:17;10.10;;;4.20;;
14736;SDS011;7459;53.590;10.062;2022-11-24T00:05:43;8.25;;;3.95;;
14736;SDS011;7459;53.590;10.062;2022-11-24T00:08:09;7.90;;;4.20;;
14736;SDS011;7459;53.590;10.062;2022-11-24T00:10:34;8.82;;;3.70;;
14736;SDS011;7459;53.590;10.062;2022-11-24T00:13:00;11.63;;;3.87;;
14736;SDS011;7459;53.590;10.062;2022-11-24T00:15:26;10.80;;;3.47;;
14736;SDS011;7459;53.590;10.062;2022-11-24T00:17:51;8.93;;;3.60;;
14736;SDS011;7459;53.590;10.062;2022-11-24T00:20:17;9.45;;;3.72;;
14736;SDS011;7459;53.590;10.062;2022-11-24T00:22:43;7.90;;;3.37;;
14736;SDS011;7459;53.590;10.062;2022-11-24T00:25:08;11.90;;;3.72;;
14736;SDS011;7459;53.590;10.062;2022-11-24T00:27:34;8.87;;;3.50;;
14736;SDS011;7459;53.590;10.062;2022-11-24T00:30:00;7.97;;;3.43;;
14736;SDS011;7459;53.590;10.062;2022-11-24T00:32:28;6.60;;;3.17;;
14736;SDS011;7459;53.590;10.062;2022-11-24T00:34:54;11.02;;;3.45;;
14736;SDS011;7459;53.590;10.062;2022-11-24T00:37:20;9.57;;;3.27;;
14736;SDS011;7459;53.590;10.062;2022-11-24T00:39:46;7.53;;;3.42;;
14736;SDS011;7459;53.590;10.062;2022-11-24T00:42:11;9.63;;;3.97;;
14736;SDS011;7459;53.590;10.062;2022-11-24T00:44:38;7.65;;;3.30;;
14736;SDS011;7459;53.590;10.062;2022-11-24T00:47:04;7.45;;;3.50;;
14736;SDS011;7459;53.590;10.062;2022-11-24T00:49:30;8.30;;;3.13;;
14736;SDS011;7459;53.590;10.062;2022-11-24T00:51:55;10.70;;;3.67;;
14736;SDS011;7459;53.590;10.062;2022-11-24T00:54:21;9.63;;;3.33;;
14736;SDS011;7459;53.590;10.062;2022-11-24T00:56:47;7.53;;;3.53;;
14736;SDS011;7459;53.590;10.062;2022-11-24T00:59:13;11.35;;;3.70;;
14736;SDS011;7459;53.590;10.062;2022-11-24T01:01:38;7.80;;;3.20;;
14736;SDS011;7459;53.590;10.062;2022-11-24T01:04:05;8.20;;;4.13;;
14736;SDS011;7459;53.590;10.062;2022-11-24T01:06:31;10.10;;;3.47;;
14736;SDS011;7459;53.590;10.062;2022-11-24T01:08:57;8.60;;;3.60;;
14736;SDS011;7459;53.590;10.062;2022-11-24T01:11:24;9.40;;;3.87;;
14736;SDS011;7459;53.590;10.062;2022-11-24T01:14:15;10.13;;;3.67;;
14736;SDS011;7459;53.590;10.062;2022-11-24T01:16:41;8.35;;;3.33;;
14736;SDS011;7459;53.590;10.062;2022-11-24T01:19:06;9.83;;;3.93;;
14736;SDS011;7459;53.590;10.062;2022-11-24T01:21:32;9.45;;;3.53;;
14736;SDS011;7459;53.590;10.062;2022-11-24T01:23:58;8.40;;;3.77;;
14736;SDS011;7459;53.590;10.062;2022-11-24T01:26:23;9.30;;;3.70;;
14736;SDS011;7459;53.590;10.062;2022-11-24T01:28:53;8.47;;;3.70;;
14736;SDS011;7459;53.590;10.062;2022-11-24T01:31:20;8.88;;;3.80;;
14736;SDS011;7459;53.590;10.062;2022-11-24T01:33:46;11.23;;;3.53;;
14736;SDS011;7459;53.590;10.062;2022-11-24T01:36:12;10.07;;;3.90;;
14736;SDS011;7459;53.590;10.062;2022-11-24T01:38:37;6.43;;;3.15;;
14736;SDS011;7459;53.590;10.062;2022-11-24T01:41:09;7.63;;;3.53;;
14736;SDS011;7459;53.590;10.062;2022-11-24T01:43:41;10.02;;;3.30;;
14736;SDS011;7459;53.590;10.062;2022-11-24T01:46:25;9.40;;;3.60;;
14736;SDS011;7459;53.590;10.062;2022-11-24T01:49:26;10.43;;;4.07;;
14736;SDS011;7459;53.590;10.062;2022-11-24T01:52:20;9.48;;;4.25;;
14736;SDS011;7459;53.590;10.062;2022-11-24T01:54:58;5.93;;;3.17;;
14736;SDS011;7459;53.590;10.062;2022-11-24T01:57:32;10.27;;;3.60;;
14736;SDS011;7459;53.590;10.062;2022-11-24T02:00:08;7.82;;;3.58;;
14736;SDS011;7459;53.590;10.062;2022-11-24T02:02:37;7.45;;;3.50;;
14736;SDS011;7459;53.590;10.062;2022-11-24T02:05:10;7.97;;;3.42;;
14736;SDS011;7459;53.590;10.062;2022-11-24T02:07:46;11.85;;;3.92;;
14736;SDS011;7459;53.590;10.062;2022-11-24T02:10:14;10.40;;;3.90;;
14736;SDS011;7459;53.590;10.062;2022-11-24T02:12:42;9.55;;;4.07;;
14736;SDS011;7459;53.590;10.062;2022-11-24T02:15:14;8.65;;;3.70;;
14736;SDS011;7459;53.590;10.062;2022-11-24T02:17:42;9.68;;;3.67;;
14736;SDS011;7459;53.590;10.062;2022-11-24T02:20:08;8.57;;;3.17;;
14736;SDS011;7459;53.590;10.062;2022-11-24T02:28:04;7.47;;;3.70;;
14736;SDS011;7459;53.590;10.062;2022-11-24T02:30:33;10.02;;;4.13;;
14736;SDS011;7459;53.590;10.062;2022-11-24T02:33:00;8.68;;;3.97;;
14736;SDS011;7459;53.590;10.062;2022-11-24T02:35:26;10.90;;;3.95;;
14736;SDS011;7459;53.590;10.062;2022-11-24T02:37:53;7.40;;;3.40;;
14736;SDS011;7459;53.590;10.062;2022-11-24T02:40:19;14.00;;;5.07;;
14736;SDS011;7459;53.590;10.062;2022-11-24T02:42:49;9.60;;;3.87;;
14736;SDS011;7459;53.590;10.062;2022-11-24T02:45:19;8.85;;;3.80;;
14736;SDS011;7459;53.590;10.062;2022-11-24T02:47:46;10.27;;;3.90;;
14736;SDS011;7459;53.590;10.062;2022-11-24T02:50:11;8.82;;;3.55;;
14736;SDS011;7459;53.590;10.062;2022-11-24T02:52:37;7.57;;;4.00;;
14736;SDS011;7459;53.590;10.062;2022-11-24T02:55:03;9.77;;;3.53;;
14736;SDS011;7459;53.590;10.062;2022-11-24T02:57:29;8.20;;;3.30;;
14736;SDS011;7459;53.590;10.062;2022-11-24T02:59:55;9.25;;;4.05;;
14736;SDS011;7459;53.590;10.062;2022-11-24T03:04:56;6.32;;;4.07;;
14736;SDS011;7459;53.590;10.062;2022-11-24T03:07:22;10.43;;;3.83;;
14736;SDS011;7459;53.590;10.062;2022-11-24T03:09:47;9.10;;;3.93;;
14736;SDS011;7459;53.590;10.062;2022-11-24T03:12:13;7.15;;;3.65;;
14736;SDS011;7459;53.590;10.062;2022-11-24T03:14:39;9.47;;;3.77;;
14736;SDS011;7459;53.590;10.062;2022-11-24T03:17:05;9.50;;;3.40;;
14736;SDS011;7459;53.590;10.062;2022-11-24T03:19:31;9.80;;;3.60;;
14736;SDS011;7459;53.590;10.062;2022-11-24T03:21:57;6.80;;;3.30;;
14736;SDS011;7459;53.590;10.062;2022-11-24T03:24:23;9.30;;;3.47;;
14736;SDS011;7459;53.590;10.062;2022-11-24T03:26:48;8.65;;;3.88;;
14736;SDS011;7459;53.590;10.062;2022-11-24T03:29:14;7.45;;;3.45;;
14736;SDS011;7459;53.590;10.062;2022-11-24T03:31:40;9.80;;;3.50;;
14736;SDS011;7459;53.590;10.062;2022-11-24T03:34:05;9.02;;;3.40;;
14736;SDS011;7459;53.590;10.062;2022-11-24T03:36:31;13.50;;;3.70;;
14736;SDS011;7459;53.590;10.062;2022-11-24T03:38:56;11.63;;;3.67;;
14736;SDS011;7459;53.590;10.062;2022-11-24T03:41:22;7.90;;;3.17;;
14736;SDS011;7459;53.590;10.062;2022-11-24T03:43:48;10.32;;;3.63;;
14736;SDS011;7459;53.590;10.062;2022-11-24T03:46:14;11.03;;;3.47;;
14736;SDS011;7459;53.590;10.062;2022-11-24T03:48:39;8.05;;;3.63;;
14736;SDS011;7459;53.590;10.062;2022-11-24T03:51:05;8.70;;;3.60;;
14736;SDS011;7459;53.590;10.062;2022-11-24T03:53:32;9.10;;;3.60;;
14736;SDS011;7459;53.590;10.062;2022-11-24T03:55:58;11.18;;;3.70;;
14736;SDS011;7459;53.590;10.062;2022-11-24T03:58:24;6.13;;;3.33;;
14736;SDS011;7459;53.590;10.062;2022-11-24T04:00:50;9.05;;;3.95;;
14736;SDS011;7459;53.590;10.062;2022-11-24T04:03:17;8.95;;;3.55;;
14736;SDS011;7459;53.590;10.062;2022-11-24T04:05:43;10.55;;;3.70;;
14736;SDS011;7459;53.590;10.062;2022-11-24T04:08:10;9.43;;;3.57;;
14736;SDS011;7459;53.590;10.062;2022-11-24T04:10:37;13.07;;;3.92;;
14736;SDS011;7459;53.590;10.062;2022-11-24T04:13:04;8.45;;;3.65;;
14736;SDS011;7459;53.590;10.062;2022-11-24T04:15:39;8.07;;;3.30;;
14736;SDS011;7459;53.590;10.062;2022-11-24T04:18:06;9.45;;;3.70;;
14736;SDS011;7459;53.590;10.062;2022-11-24T04:20:34;8.63;;;3.63;;
14736;SDS011;7459;53.590;10.062;2022-11-24T04:23:00;9.73;;;3.80;;
14736;SDS011;7459;53.590;10.062;2022-11-24T04:25:26;8.15;;;3.70;;
14736;SDS011;7459;53.590;10.062;2022-11-24T04:27:52;10.07;;;3.67;;
14736;SDS011;7459;53.590;10.062;2022-11-24T04:30:19;7.00;;;3.08;;
14736;SDS011;7459;53.590;10.062;2022-11-24T04:32:46;8.98;;;3.58;;
14736;SDS011;7459;53.590;10.062;2022-11-24T04:35:12;6.53;;;3.80;;
14736;SDS011;7459;53.590;10.062;2022-11-24T04:37:38;12.80;;;4.30;;
14736;SDS011;7459;53.590;10.062;2022-11-24T04:40:05;11.93;;;4.20;;
14736;SDS011;7459;53.590;10.062;2022-11-24T04:42:32;8.63;;;4.25;;
14736;SDS011;7459;53.590;10.062;2022-11-24T04:44:58;8.38;;;3.92;;
14736;SDS011;7459;53.590;10.062;2022-11-24T04:47:24;10.18;;;4.00;;
14736;SDS011;7459;53.590;10.062;2022-11-24T04:49:50;8.47;;;3.70;;
14736;SDS011;7459;53.590;10.062;2022-11-24T04:52:17;11.48;;;4.18;;
14736;SDS011;7459;53.590;10.062;2022-11-24T04:54:45;9.25;;;4.00;;
14736;SDS011;7459;53.590;10.062;2022-11-24T04:57:15;12.50;;;3.90;;
14736;SDS011;7459;53.590;10.062;2022-11-24T04:59:47;9.60;;;3.83;;
14736;SDS011;7459;53.590;10.062;2022-11-24T05:02:14;11.17;;;3.80;;
14736;SDS011;7459;53.590;10.062;2022-11-24T05:04:40;10.77;;;3.95;;
14736;SDS011;7459;53.590;10.062;2022-11-24T05:07:06;7.95;;;3.38;;
14736;SDS011;7459;53.590;10.062;2022-11-24T05:09:35;10.60;;;3.70;;
14736;SDS011;7459;53.590;10.062;2022-11-24T05:12:20;10.15;;;3.75;;
14736;SDS011;7459;53.590;10.062;2022-11-24T05:14:46;9.95;;;3.67;;
14736;SDS011;7459;53.590;10.062;2022-11-24T05:17:12;10.47;;;4.17;;
14736;SDS011;7459;53.590;10.062;2022-11-24T05:19:37;10.52;;;3.97;;
14736;SDS011;7459;53.590;10.062;2022-11-24T05:22:03;9.53;;;3.77;;
14736;SDS011;7459;53.590;10.062;2022-11-24T05:24:29;12.40;;;4.00;;
14736;SDS011;7459;53.590;10.062;2022-11-24T05:26:54;9.85;;;3.80;;
14736;SDS011;7459;53.590;10.062;2022-11-24T05:29:20;9.73;;;4.10;;
14736;SDS011;7459;53.590;10.062;2022-11-24T05:31:46;10.75;;;4.05;;
14736;SDS011;7459;53.590;10.062;2022-11-24T05:34:11;9.97;;;4.20;;
14736;SDS011;7459;53.590;10.062;2022-11-24T05:36:38;10.27;;;3.92;;
14736;SDS011;7459;53.590;10.062;2022-11-24T05:39:19;11.80;;;4.15;;
14736;SDS011;7459;53.590;10.062;2022-11-24T05:41:45;8.63;;;3.60;;
14736;SDS011;7459;53.590;10.062;2022-11-24T05:44:11;10.93;;;4.15;;
14736;SDS011;7459;53.590;10.062;2022-11-24T05:46:37;11.00;;;3.92;;
14736;SDS011;7459;53.590;10.062;2022-11-24T05:49:05;10.85;;;4.40;;
14736;SDS011;7459;53.590;10.062;2022-11-24T05:51:31;11.07;;;4.22;;
14736;SDS011;7459;53.590;10.062;2022-11-24T05:53:57;9.27;;;4.22;;
14736;SDS011;7459;53.590;10.062;2022-11-24T05:56:22;10.60;;;4.40;;
14736;SDS011;7459;53.590;10.062;2022-11-24T05:58:48;10.43;;;3.60;;
14736;SDS011;7459;53.590;10.062;2022-11-24T06:01:14;9.18;;;3.60;;
14736;SDS011;7459;53.590;10.062;2022-11-24T06:03:39;10.20;;;4.47;;
14736;SDS011;7459;53.590;10.062;2022-11-24T06:06:05;10.60;;;4.13;;
14736;SDS011;7459;53.590;10.062;2022-11-24T06:08:32;10.73;;;3.53;;
14736;SDS011;7459;53.590;10.062;2022-11-24T06:10:59;10.98;;;3.80;;
14736;SDS011;7459;53.590;10.062;2022-11-24T06:13:44;13.20;;;4.03;;
14736;SDS011;7459;53.590;10.062;2022-11-24T06:16:12;14.98;;;3.80;;
14736;SDS011;7459;53.590;10.062;2022-11-24T06:18:38;9.82;;;4.25;;
14736;SDS011;7459;53.590;10.062;2022-11-24T06:21:04;12.10;;;4.20;;
14736;SDS011;7459;53.590;10.062;2022-11-24T06:23:31;13.75;;;4.18;;
14736;SDS011;7459;53.590;10.062;2022-11-24T06:25:57;10.60;;;4.07;;
14736;SDS011;7459;53.590;10.062;2022-11-24T06:28:24;11.68;;;4.13;;
14736;SDS011;7459;53.590;10.062;2022-11-24T06:30:50;9.70;;;3.90;;
14736;SDS011;7459;53.590;10.062;2022-11-24T06:33:16;8.63;;;3.65;;
14736;SDS011;7459;53.590;10.062;2022-11-24T06:35:42;14.57;;;3.67;;
14736;SDS011;7459;53.590;10.062;2022-11-24T06:38:07;13.43;;;4.07;;
14736;SDS011;7459;53.590;10.062;2022-11-24T06:40:33;9.32;;;4.20;;
14736;SDS011;7459;53.590;10.062;2022-11-24T06:42:59;9.77;;;4.03;;
14736;SDS011;7459;53.590;10.062;2022-11-24T06:45:24;9.48;;;4.07;;
14736;SDS011;7459;53.590;10.062;2022-11-24T06:47:53;12.17;;;4.03;;
14736;SDS011;7459;53.590;10.062;2022-11-24T06:50:20;12.43;;;3.83;;
14736;SDS011;7459;53.590;10.062;2022-11-24T06:52:46;11.98;;;3.88;;
14736;SDS011;7459;53.590;10.062;2022-11-24T06:55:12;8.50;;;3.60;;
14736;SDS011;7459;53.590;10.062;2022-11-24T06:57:38;11.68;;;4.30;;
14736;SDS011;7459;53.590;10.062;2022-11-24T07:00:04;12.80;;;3.93;;
14736;SDS011;7459;53.590;10.062;2022-11-24T07:02:31;9.93;;;4.03;;
14736;SDS011;7459;53.590;10.062;2022-11-24T07:04:57;14.48;;;4.80;;
14736;SDS011;7459;53.590;10.062;2022-11-24T07:07:23;11.83;;;4.30;;
14736;SDS011;7459;53.590;10.062;2022-11-24T07:09:49;9.25;;;4.07;;
14736;SDS011;7459;53.590;10.062;2022-11-24T07:12:15;12.18;;;4.20;;
14736;SDS011;7459;53.590;10.062;2022-11-24T07:14:40;11.05;;;4.35;;
14736;SDS011;7459;53.590;10.062;2022-11-24T07:17:06;9.57;;;4.20;;
14736;SDS011;7459;53.590;10.062;2022-11-24T07:19:32;10.07;;;4.40;;
14736;SDS011;7459;53.590;10.062;2022-11-24T07:21:57;8.07;;;3.83;;
14736;SDS011;7459;53.590;10.062;2022-11-24T07:24:23;11.50;;;4.15;;
14736;SDS011;7459;53.590;10.062;2022-11-24T07:26:49;10.70;;;4.53;;
14736;SDS011;7459;53.590;10.062;2022-11-24T07:29:14;12.88;;;5.10;;
14736;SDS011;7459;53.590;10.062;2022-11-24T07:31:40;12.97;;;5.20;;
14736;SDS011;7459;53.590;10.062;2022-11-24T07:34:06;9.65;;;4.30;;
14736;SDS011;7459;53.590;10.062;2022-11-24T07:36:32;8.70;;;4.23;;
14736;SDS011;7459;53.590;10.062;2022-11-24T07:38:57;13.15;;;4.72;;
14736;SDS011;7459;53.590;10.062;2022-11-24T07:41:23;15.75;;;4.75;;
14736;SDS011;7459;53.590;10.062;2022-11-24T07:43:49;15.40;;;4.57;;
14736;SDS011;7459;53.590;10.062;2022-11-24T07:46:16;13.90;;;5.00;;
14736;SDS011;7459;53.590;10.062;2022-11-24T07:48:43;12.38;;;4.70;;
14736;SDS011;7459;53.590;10.062;2022-11-24T07:51:10;15.02;;;5.28;;
14736;SDS011;7459;53.590;10.062;2022-11-24T07:53:36;11.33;;;5.03;;
14736;SDS011;7459;53.590;10.062;2022-11-24T07:56:03;13.57;;;4.75;;
14736;SDS011;7459;53.590;10.062;2022-11-24T07:58:31;14.63;;;5.30;;
14736;SDS011;7459;53.590;10.062;2022-11-24T08:01:07;14.25;;;5.10;;
14736;SDS011;7459;53.590;10.062;2022-11-24T08:03:38;13.70;;;4.78;;
14736;SDS011;7459;53.590;10.062;2022-11-24T08:06:05;12.57;;;4.70;;
14736;SDS011;7459;53.590;10.062;2022-11-24T08:08:31;12.77;;;5.00;;
14736;SDS011;7459;53.590;10.062;2022-11-24T08:10:57;15.32;;;5.32;;
14736;SDS011;7459;53.590;10.062;2022-11-24T08:13:27;11.93;;;4.75;;
14736;SDS011;7459;53.590;10.062;2022-11-24T08:15:53;12.40;;;5.23;;
14736;SDS011;7459;53.590;10.062;2022-11-24T08:18:19;12.68;;;4.68;;
14736;SDS011;7459;53.590;10.062;2022-11-24T08:20:46;13.93;;;5.30;;
14736;SDS011;7459;53.590;10.062;2022-11-24T08:23:12;12.30;;;4.80;;
14736;SDS011;7459;53.590;10.062;2022-11-24T08:25:37;13.88;;;5.18;;
14736;SDS011;7459;53.590;10.062;2022-11-24T08:28:03;15.40;;;5.10;;
14736;SDS011;7459;53.590;10.062;2022-11-24T08:30:29;14.32;;;5.57;;
14736;SDS011;7459;53.590;10.062;2022-11-24T08:32:59;11.80;;;4.72;;
14736;SDS011;7459;53.590;10.062;2022-11-24T08:35:25;13.50;;;5.05;;
14736;SDS011;7459;53.590;10.062;2022-11-24T08:37:52;12.38;;;5.13;;
14736;SDS011;7459;53.590;10.062;2022-11-24T08:40:18;12.13;;;5.38;;
14736;SDS011;7459;53.590;10.062;2022-11-24T08:42:44;14.75;;;4.63;;
14736;SDS011;7459;53.590;10.062;2022-11-24T08:45:09;14.20;;;4.83;;
14736;SDS011;7459;53.590;10.062;2022-11-24T08:47:35;12.88;;;5.20;;
14736;SDS011;7459;53.590;10.062;2022-11-24T08:50:01;13.63;;;5.10;;
14736;SDS011;7459;53.590;10.062;2022-11-24T08:52:27;16.45;;;6.20;;
14736;SDS011;7459;53.590;10.062;2022-11-24T08:54:52;17.40;;;5.07;;
14736;SDS011;7459;53.590;10.062;2022-11-24T08:57:18;11.55;;;4.60;;
14736;SDS011;7459;53.590;10.062;2022-11-24T08:59:44;12.73;;;4.97;;
14736;SDS011;7459;53.590;10.062;2022-11-24T09:02:13;13.55;;;4.65;;
14736;SDS011;7459;53.590;10.062;2022-11-24T09:04:38;13.77;;;4.65;;
14736;SDS011;7459;53.590;10.062;2022-11-24T09:07:04;16.33;;;4.53;;
14736;SDS011;7459;53.590;10.062;2022-11-24T09:09:30;15.95;;;5.20;;
14736;SDS011;7459;53.590;10.062;2022-11-24T09:11:56;12.63;;;4.47;;
14736;SDS011;7459;53.590;10.062;2022-11-24T09:14:21;15.32;;;4.90;;
14736;SDS011;7459;53.590;10.062;2022-11-24T09:16:47;15.70;;;5.17;;
14736;SDS011;7459;53.590;10.062;2022-11-24T09:19:13;16.48;;;4.93;;
14736;SDS011;7459;53.590;10.062;2022-11-24T09:21:38;14.70;;;4.93;;
14736;SDS011;7459;53.590;10.062;2022-11-24T09:24:05;17.25;;;4.93;;
14736;SDS011;7459;53.590;10.062;2022-11-24T09:26:33;18.25;;;5.55;;
14736;SDS011;7459;53.590;10.062;2022-11-24T09:29:02;13.37;;;4.83;;
14736;SDS011;7459;53.590;10.062;2022-11-24T09:31:31;14.15;;;4.57;;
14736;SDS011;7459;53.590;10.062;2022-11-24T09:33:58;20.80;;;5.45;;
14736;SDS011;7459;53.590;10.062;2022-11-24T09:36:25;12.02;;;4.40;;
14736;SDS011;7459;53.590;10.062;2022-11-24T09:38:52;14.70;;;4.68;;
14736;SDS011;7459;53.590;10.062;2022-11-24T09:55:41;14.05;;;4.70;;
14736;SDS011;7459;53.590;10.062;2022-11-24T10:00:55;14.05;;;4.57;;
14736;SDS011;7459;53.590;10.062;2022-11-24T10:06:02;18.30;;;5.28;;
14736;SDS011;7459;53.590;10.062;2022-11-24T10:11:30;14.32;;;4.60;;
14736;SDS011;7459;53.590;10.062;2022-11-24T10:22:59;14.23;;;4.60;;
14736;SDS011;7459;53.590;10.062;2022-11-24T10:26:17;14.85;;;5.00;;
14736;SDS011;7459;53.590;10.062;2022-11-24T10:28:54;15.80;;;4.95;;
14736;SDS011;7459;53.590;10.062;2022-11-24T10:31:33;12.75;;;4.68;;
14736;SDS011;7459;53.590;10.062;2022-11-24T10:34:04;13.68;;;4.82;;
14736;SDS011;7459;53.590;10.062;2022-11-24T10:39:16;16.90;;;5.25;;
14736;SDS011;7459;53.590;10.062;2022-11-24T10:42:04;20.70;;;4.85;;
14736;SDS011;7459;53.590;10.062;2022-11-24T10:44:57;14.60;;;5.30;;
14736;SDS011;7459;53.590;10.062;2022-11-24T10:47:25;21.40;;;5.20;;
14736;SDS011;7459;53.590;10.062;2022-11-24T10:49:54;16.63;;;4.82;;
14736;SDS011;7459;53.590;10.062;2022-11-24T10:52:40;13.57;;;4.80;;
14736;SDS011;7459;53.590;10.062;2022-11-24T10:55:09;17.85;;;5.00;;
14736;SDS011;7459;53.590;10.062;2022-11-24T10:57:37;14.45;;;5.15;;
14736;SDS011;7459;53.590;10.062;2022-11-24T11:02:48;15.95;;;5.22;;
14736;SDS011;7459;53.590;10.062;2022-11-24T11:08:18;15.15;;;4.65;;
14736;SDS011;7459;53.590;10.062;2022-11-24T11:11:12;15.85;;;5.03;;
14736;SDS011;7459;53.590;10.062;2022-11-24T11:13:47;18.27;;;4.85;;
14736;SDS011;7459;53.590;10.062;2022-11-24T11:16:36;13.63;;;5.05;;
14736;SDS011;7459;53.590;10.062;2022-11-24T11:22:01;17.00;;;5.15;;
14736;SDS011;7459;53.590;10.062;2022-11-24T11:24:33;14.57;;;5.47;;
14736;SDS011;7459;53.590;10.062;2022-11-24T11:27:00;22.65;;;5.78;;
14736;SDS011;7459;53.590;10.062;2022-11-24T11:29:41;18.05;;;5.10;;
14736;SDS011;7459;53.590;10.062;2022-11-24T11:32:15;12.40;;;4.72;;
14736;SDS011;7459;53.590;10.062;2022-11-24T11:34:49;18.80;;;5.07;;
14736;SDS011;7459;53.590;10.062;2022-11-24T11:37:18;17.58;;;4.57;;
14736;SDS011;7459;53.590;10.062;2022-11-24T11:39:47;15.13;;;5.05;;
14736;SDS011;7459;53.590;10.062;2022-11-24T11:45:15;12.75;;;4.10;;
14736;SDS011;7459;53.590;10.062;2022-11-24T11:50:23;15.88;;;4.25;;
14736;SDS011;7459;53.590;10.062;2022-11-24T11:58:42;18.88;;;4.47;;
14736;SDS011;7459;53.590;10.062;2022-11-24T12:10:15;13.57;;;4.63;;
14736;SDS011;7459;53.590;10.062;2022-11-24T12:15:43;17.17;;;4.70;;
14736;SDS011;7459;53.590;10.062;2022-11-24T12:18:24;16.08;;;5.10;;
14736;SDS011;7459;53.590;10.062;2022-11-24T12:30:09;17.77;;;5.22;;
14736;SDS011;7459;53.590;10.062;2022-11-24T12:35:41;15.50;;;4.85;;
14736;SDS011;7459;53.590;10.062;2022-11-24T12:38:44;15.57;;;4.55;;
14736;SDS011;7459;53.590;10.062;2022-11-24T12:41:35;15.98;;;5.22;;
14736;SDS011;7459;53.590;10.062;2022-11-24T12:44:29;16.70;;;4.22;;
14736;SDS011;7459;53.590;10.062;2022-11-24T12:47:19;18.90;;;4.63;;
14736;SDS011;7459;53.590;10.062;2022-11-24T12:52:46;19.75;;;4.45;;
14736;SDS011;7459;53.590;10.062;2022-11-24T12:55:18;12.90;;;3.85;;
14736;SDS011;7459;53.590;10.062;2022-11-24T13:00:39;15.05;;;4.55;;
14736;SDS011;7459;53.590;10.062;2022-11-24T13:03:09;15.35;;;4.20;;
14736;SDS011;7459;53.590;10.062;2022-11-24T13:08:22;17.05;;;4.20;;
14736;SDS011;7459;53.590;10.062;2022-11-24T13:10:51;16.30;;;5.78;;
14736;SDS011;7459;53.590;10.062;2022-11-24T13:13:16;15.73;;;4.63;;
14736;SDS011;7459;53.590;10.062;2022-11-24T13:26:30;14.02;;;4.72;;
14736;SDS011;7459;53.590;10.062;2022-11-24T13:40:02;14.68;;;5.03;;
14736;SDS011;7459;53.590;10.062;2022-11-24T13:58:40;16.92;;;4.53;;
14736;SDS011;7459;53.590;10.062;2022-11-24T14:06:38;16.55;;;5.10;;
14736;SDS011;7459;53.590;10.062;2022-11-24T14:12:16;17.80;;;4.85;;
14736;SDS011;7459;53.590;10.062;2022-11-24T14:14:48;14.90;;;4.10;;
14736;SDS011;7459;53.590;10.062;2022-11-24T14:17:20;17.10;;;4.60;;
14736;SDS011;7459;53.590;10.062;2022-11-24T14:19:55;11.98;;;3.80;;
14736;SDS011;7459;53.590;10.062;2022-11-24T14:22:23;11.32;;;4.78;;
14736;SDS011;7459;53.590;10.062;2022-11-24T14:25:01;13.65;;;4.07;;
14736;SDS011;7459;53.590;10.062;2022-11-24T14:32:37;10.90;;;4.03;;
14736;SDS011;7459;53.590;10.062;2022-11-24T14:35:21;11.48;;;4.18;;
14736;SDS011;7459;53.590;10.062;2022-11-24T14:37:48;14.98;;;4.38;;
14736;SDS011;7459;53.590;10.062;2022-11-24T14:40:35;13.52;;;4.07;;
14736;SDS011;7459;53.590;10.062;2022-11-24T14:43:20;12.73;;;4.28;;
14736;SDS011;7459;53.590;10.062;2022-11-24T14:45:54;15.30;;;3.23;;
14736;SDS011;7459;53.590;10.062;2022-11-24T14:48:34;16.55;;;3.80;;
14736;SDS011;7459;53.590;10.062;2022-11-24T14:53:35;20.53;;;4.10;;
14736;SDS011;7459;53.590;10.062;2022-11-24T14:56:05;11.60;;;3.58;;
14736;SDS011;7459;53.590;10.062;2022-11-24T14:58:46;13.20;;;3.55;;
14736;SDS011;7459;53.590;10.062;2022-11-24T15:04:12;17.85;;;3.53;;
14736;SDS011;7459;53.590;10.062;2022-11-24T15:12:23;12.98;;;4.00;;
14736;SDS011;7459;53.590;10.062;2022-11-24T15:14:56;11.03;;;2.90;;
14736;SDS011;7459;53.590;10.062;2022-11-24T15:17:26;15.10;;;4.07;;
14736;SDS011;7459;53.590;10.062;2022-11-24T15:19:55;16.35;;;3.55;;
14736;SDS011;7459;53.590;10.062;2022-11-24T15:22:35;18.50;;;3.80;;
14736;SDS011;7459;53.590;10.062;2022-11-24T15:27:55;11.87;;;3.30;;
14736;SDS011;7459;53.590;10.062;2022-11-24T15:30:21;11.80;;;3.80;;
14736;SDS011;7459;53.590;10.062;2022-11-24T15:32:48;16.25;;;4.00;;
14736;SDS011;7459;53.590;10.062;2022-11-24T15:35:21;16.10;;;3.88;;
14736;SDS011;7459;53.590;10.062;2022-11-24T15:37:54;18.23;;;4.00;;
14736;SDS011;7459;53.590;10.062;2022-11-24T15:40:20;20.90;;;4.40;;
14736;SDS011;7459;53.590;10.062;2022-11-24T15:42:52;12.85;;;3.40;;
14736;SDS011;7459;53.590;10.062;2022-11-24T15:45:20;16.47;;;4.13;;
14736;SDS011;7459;53.590;10.062;2022-11-24T15:47:48;12.68;;;3.88;;
14736;SDS011;7459;53.590;10.062;2022-11-24T15:50:14;17.25;;;3.88;;
14736;SDS011;7459;53.590;10.062;2022-11-24T15:52:40;15.65;;;4.18;;
14736;SDS011;7459;53.590;10.062;2022-11-24T15:55:11;11.10;;;3.80;;
14736;SDS011;7459;53.590;10.062;2022-11-24T15:57:44;19.63;;;3.67;;
14736;SDS011;7459;53.590;10.062;2022-11-24T16:00:13;13.40;;;5.70;;
14736;SDS011;7459;53.590;10.062;2022-11-24T16:02:45;14.00;;;4.07;;
14736;SDS011;7459;53.590;10.062;2022-11-24T16:05:11;11.33;;;3.83;;
14736;SDS011;7459;53.590;10.062;2022-11-24T16:07:37;10.25;;;4.30;;
14736;SDS011;7459;53.590;10.062;2022-11-24T16:10:04;12.75;;;3.95;;
14736;SDS011;7459;53.590;10.062;2022-11-24T16:12:32;11.38;;;4.10;;
14736;SDS011;7459;53.590;10.062;2022-11-24T16:14:58;15.07;;;4.83;;
14736;SDS011;7459;53.590;10.062;2022-11-24T16:17:23;16.02;;;4.38;;
14736;SDS011;7459;53.590;10.062;2022-11-24T16:19:49;17.03;;;4.13;;
14736;SDS011;7459;53.590;10.062;2022-11-24T16:22:15;13.75;;;4.25;;
14736;SDS011;7459;53.590;10.062;2022-11-24T16:24:40;10.63;;;3.22;;
14736;SDS011;7459;53.590;10.062;2022-11-24T16:27:06;14.53;;;3.60;;
14736;SDS011;7459;53.590;10.062;2022-11-24T16:29:32;11.93;;;3.88;;
14736;SDS011;7459;53.590;10.062;2022-11-24T16:31:57;16.33;;;4.53;;
14736;SDS011;7459;53.590;10.062;2022-11-24T16:34:23;11.85;;;3.38;;
14736;SDS011;7459;53.590;10.062;2022-11-24T16:36:49;14.70;;;4.30;;
14736;SDS011;7459;53.590;10.062;2022-11-24T16:39:15;22.35;;;4.68;;
14736;SDS011;7459;53.590;10.062;2022-11-24T16:41:40;12.63;;;3.70;;
14736;SDS011;7459;53.590;10.062;2022-11-24T16:44:06;18.33;;;4.50;;
14736;SDS011;7459;53.590;10.062;2022-11-24T16:46:32;18.57;;;5.13;;
14736;SDS011;7459;53.590;10.062;2022-11-24T16:48:58;18.08;;;4.90;;
14736;SDS011;7459;53.590;10.062;2022-11-24T16:51:27;17.73;;;4.93;;
14736;SDS011;7459;53.590;10.062;2022-11-24T16:53:58;18.40;;;6.55;;
14736;SDS011;7459;53.590;10.062;2022-11-24T16:56:26;18.95;;;5.47;;
14736;SDS011;7459;53.590;10.062;2022-11-24T16:58:53;21.42;;;6.55;;
14736;SDS011;7459;53.590;10.062;2022-11-24T17:01:19;14.80;;;5.13;;
14736;SDS011;7459;53.590;10.062;2022-11-24T17:03:45;17.88;;;6.20;;
14736;SDS011;7459;53.590;10.062;2022-11-24T17:06:11;16.08;;;5.13;;
14736;SDS011;7459;53.590;10.062;2022-11-24T17:08:43;20.58;;;5.90;;
14736;SDS011;7459;53.590;10.062;2022-11-24T17:11:13;23.77;;;5.60;;
14736;SDS011;7459;53.590;10.062;2022-11-24T17:13:43;19.98;;;4.95;;
14736;SDS011;7459;53.590;10.062;2022-11-24T17:16:12;18.67;;;5.32;;
14736;SDS011;7459;53.590;10.062;2022-11-24T17:18:41;16.67;;;4.97;;
14736;SDS011;7459;53.590;10.062;2022-11-24T17:21:15;27.08;;;6.05;;
14736;SDS011;7459;53.590;10.062;2022-11-24T17:23:52;21.48;;;5.45;;
14736;SDS011;7459;53.590;10.062;2022-11-24T17:26:29;13.68;;;4.68;;
14736;SDS011;7459;53.590;10.062;2022-11-24T17:28:55;16.52;;;4.70;;